createdAt,value
2022-11-26T00:00:46.443Z,3.47
2022-11-26T00:03:14.657Z,3.67
2022-11-26T00:05:44.080Z,5.47
2022-11-26T00:08:31.105Z,4.50
2022-11-26T00:10:57.811Z,4.40
2022-11-26T00:13:27.299Z,3.90
2022-11-26T00:15:54.855Z,3.60
2022-11-26T00:18:26.797Z,3.25
2022-11-26T00:20:56.612Z,3.60
2022-11-26T00:23:25.854Z,3.08
2022-11-26T00:25:59.039Z,2.92
2022-11-26T00:28:37.421Z,3.00
2022-11-26T05:32:29.714Z,3.50
2022-11-26T05:35:00.018Z,3.33
2022-11-26T05:37:27.179Z,3.35
2022-11-26T05:39:53.884Z,3.55
2022-11-26T05:42:20.627Z,3.30
2022-11-26T05:44:47.341Z,2.78
2022-11-26T05:47:14.084Z,3.05
2022-11-26T05:49:40.863Z,3.20
2022-11-26T05:52:07.651Z,3.30
2022-11-26T05:54:34.374Z,3.80
2022-11-26T05:57:01.432Z,3.80
2022-11-26T05:59:29.193Z,4.05
2022-11-26T06:01:56.009Z,3.60
2022-11-26T06:04:23.126Z,3.78
2022-11-26T06:06:49.833Z,5.00
2022-11-26T06:09:16.712Z,4.13
2022-11-26T06:11:43.423Z,4.43
2022-11-26T06:14:10.623Z,3.30
2022-11-26T06:16:37.791Z,3.38
2022-11-26T06:19:04.576Z,3.35
2022-11-26T06:21:31.349Z,3.30
2022-11-26T06:23:59.686Z,3.20
2022-11-26T06:26:26.840Z,3.50
2022-11-26T06:28:53.603Z,3.50
2022-11-26T06:31:20.421Z,3.10
2022-11-26T06:33:47.677Z,3.17
2022-11-26T06:36:14.401Z,3.47
2022-11-26T06:38:41.121Z,3.78
2022-11-26T06:41:08.991Z,3.50
2022-11-26T06:43:36.159Z,4.10
2022-11-26T06:46:05.351Z,4.18
2022-11-26T06:48:33.082Z,3.45
2022-11-26T06:51:14.645Z,3.25
2022-11-26T06:53:41.447Z,3.45
2022-11-26T06:56:17.817Z,3.38
2022-11-26T06:58:46.570Z,3.13
2022-11-26T07:01:24.997Z,3.17
2022-11-26T07:03:52.713Z,3.38
2022-11-26T07:06:22.146Z,3.30
2022-11-26T07:08:50.030Z,3.97
2022-11-26T07:11:17.445Z,3.53
2022-11-26T07:13:45.131Z,4.78
2022-11-26T07:16:12.971Z,3.80
2022-11-26T07:18:39.950Z,3.50
2022-11-26T07:21:16.452Z,3.42
2022-11-26T07:23:43.180Z,3.97
2022-11-26T07:26:11.611Z,3.80
2022-11-26T07:28:40.127Z,4.20
2022-11-26T07:31:17.232Z,4.03
2022-11-26T07:33:45.498Z,4.53
2022-11-26T07:36:22.589Z,5.05
2022-11-26T07:38:49.403Z,4.75
2022-11-26T07:41:18.670Z,5.20
2022-11-26T07:43:45.894Z,4.97
2022-11-26T07:46:15.982Z,4.93
2022-11-26T07:48:42.868Z,19.08
2022-11-26T07:51:23.780Z,13.70
2022-11-26T07:53:51.013Z,13.77
2022-11-26T07:56:18.519Z,8.65
2022-11-26T07:58:46.068Z,8.13
2022-11-26T08:01:19.320Z,7.63
2022-11-26T08:03:48.286Z,6.82
2022-11-26T08:06:17.468Z,8.07
2022-11-26T08:08:44.527Z,8.93
2022-11-26T08:11:16.031Z,5.60
2022-11-26T08:13:43.447Z,7.05
2022-11-26T08:16:10.585Z,7.63
2022-11-26T08:18:37.734Z,9.30
2022-11-26T08:21:05.315Z,6.68
2022-11-26T08:23:32.127Z,7.07
2022-11-26T08:26:21.626Z,6.28
2022-11-26T08:28:47.436Z,5.00
2022-11-26T08:31:16.182Z,5.18
2022-11-26T08:33:43.087Z,6.07
2022-11-26T08:36:10.941Z,4.60
2022-11-26T08:38:38.153Z,5.35
2022-11-26T08:41:10.519Z,7.28
2022-11-26T08:44:04.983Z,7.20
2022-11-26T08:46:25.917Z,7.35
2022-11-26T08:48:55.971Z,10.85
2022-11-26T08:51:22.983Z,10.07
2022-11-26T08:53:49.763Z,10.25
2022-11-26T08:56:16.498Z,8.65
2022-11-26T08:58:45.552Z,11.50
2022-11-26T09:01:21.072Z,13.25
2022-11-26T09:03:52.333Z,7.68
2022-11-26T09:06:20.440Z,5.00
2022-11-26T09:09:05.507Z,5.00
2022-11-26T09:11:35.241Z,4.43
2022-11-26T09:14:02.600Z,3.75
2022-11-26T09:16:30.054Z,4.03
2022-11-26T09:19:00.596Z,4.07
2022-11-26T09:21:27.872Z,4.65
2022-11-26T09:23:55.326Z,4.68
2022-11-26T09:26:22.792Z,4.57
2022-11-26T09:28:49.957Z,7.88
2022-11-26T09:31:17.348Z,8.50
2022-11-26T09:33:45.033Z,4.90
2022-11-26T09:36:13.870Z,4.30
2022-11-26T09:38:41.228Z,3.50
2022-11-26T09:41:35.384Z,3.70
2022-11-26T09:47:10.409Z,3.92
2022-11-26T09:49:52.931Z,3.47
2022-11-26T09:52:23.112Z,3.20
2022-11-26T09:54:55.111Z,3.67
2022-11-26T09:57:46.334Z,5.38
2022-11-26T10:00:23.690Z,5.60
2022-11-26T10:02:53.377Z,5.30
2022-11-26T10:05:22.941Z,6.30
2022-11-26T10:08:12.384Z,5.40
2022-11-26T10:11:03.809Z,4.07
2022-11-26T10:13:43.713Z,2.85
2022-11-26T10:16:43.024Z,3.08
2022-11-26T10:19:18.169Z,3.25
2022-11-26T10:22:03.556Z,3.45
2022-11-26T10:24:37.107Z,3.67
2022-11-26T10:27:15.538Z,2.97
2022-11-26T10:29:44.494Z,4.03
2022-11-26T10:32:18.499Z,5.50
2022-11-26T10:34:52.651Z,5.75
2022-11-26T10:37:25.307Z,7.28
2022-11-26T10:40:24.925Z,4.25
2022-11-26T10:43:12.633Z,5.43
2022-11-26T10:45:40.819Z,10.70
2022-11-26T10:48:30.731Z,5.93
2022-11-26T10:51:13.635Z,5.03
2022-11-26T10:53:56.846Z,4.78
2022-11-26T10:56:36.644Z,11.45
2022-11-26T10:59:17.324Z,15.30
2022-11-26T11:01:44.559Z,13.38
2022-11-26T11:04:29.279Z,13.90
2022-11-26T11:06:56.412Z,6.97
2022-11-26T11:09:35.449Z,5.43
2022-11-26T11:12:23.694Z,5.13
2022-11-26T11:14:51.666Z,5.93
2022-11-26T11:17:40.582Z,3.90
2022-11-26T11:20:26.531Z,2.75
2022-11-26T11:23:16.507Z,5.00
2022-11-26T11:25:47.437Z,3.35
2022-11-26T11:28:20.573Z,2.75
2022-11-26T11:30:56.845Z,2.50
2022-11-26T11:33:27.593Z,2.45
2022-11-26T11:36:13.248Z,2.40
2022-11-26T11:38:53.617Z,2.17
2022-11-26T11:41:42.048Z,2.47
2022-11-26T11:44:35.625Z,2.97
2022-11-26T11:49:54.909Z,2.30
2022-11-26T11:52:27.785Z,2.28
2022-11-26T11:55:05.312Z,2.03
2022-11-26T11:57:55.968Z,2.92
2022-11-26T12:00:48.781Z,2.30
2022-11-26T12:04:07.192Z,2.13
2022-11-26T12:06:41.680Z,2.17
2022-11-26T12:09:16.608Z,2.90
2022-11-26T12:12:12.065Z,3.25
2022-11-26T12:14:47.863Z,3.90
2022-11-26T12:17:33.059Z,3.80
2022-11-26T12:20:26.459Z,2.67
2022-11-26T12:23:13.090Z,2.87
2022-11-26T12:25:41.839Z,3.28
2022-11-26T12:28:19.908Z,2.55
2022-11-26T12:30:58.982Z,2.85
2022-11-26T12:33:35.692Z,3.42
2022-11-26T12:36:14.709Z,3.67
2022-11-26T12:38:54.336Z,4.15
2022-11-26T12:41:41.058Z,4.25
2022-11-26T12:44:28.441Z,3.40
2022-11-26T12:47:01.788Z,3.13
2022-11-26T12:49:55.315Z,2.50
2022-11-26T12:52:46.789Z,2.70
2022-11-26T12:55:38.823Z,3.22
2022-11-26T12:58:15.459Z,3.28
2022-11-26T13:00:42.432Z,3.53
2022-11-26T13:03:18.213Z,2.97
2022-11-26T13:06:05.182Z,3.47
2022-11-26T13:08:55.117Z,4.25
2022-11-26T13:11:26.482Z,3.70
2022-11-26T13:14:11.409Z,3.47
2022-11-26T13:16:49.497Z,3.67
2022-11-26T13:19:36.204Z,3.78
2022-11-26T13:22:08.448Z,3.40
2022-11-26T13:25:01.637Z,4.07
2022-11-26T13:27:49.627Z,4.20
2022-11-26T13:30:45.875Z,4.68
2022-11-26T13:33:45.890Z,4.15
2022-11-26T13:36:28.759Z,4.13
2022-11-26T13:39:05.244Z,5.78
2022-11-26T13:41:45.436Z,5.00
2022-11-26T13:44:36.759Z,4.30
2022-11-26T13:47:13.078Z,4.95
2022-11-26T13:49:55.156Z,5.57
2022-11-26T13:52:28.127Z,5.43
2022-11-26T13:55:07.424Z,2.83
2022-11-26T13:57:41.277Z,2.65
2022-11-26T14:00:09.045Z,2.75
2022-11-26T14:02:37.148Z,2.70
2022-11-26T14:05:10.318Z,2.65
2022-11-26T14:07:37.702Z,2.83
2022-11-26T14:10:34.091Z,3.15
2022-11-26T14:13:03.930Z,2.55
2022-11-26T14:15:42.831Z,3.15
2022-11-26T14:18:14.917Z,2.85
2022-11-26T14:21:00.592Z,2.40
2022-11-26T14:23:47.437Z,4.55
2022-11-26T14:26:19.290Z,3.30
2022-11-26T14:28:46.149Z,2.97
2022-11-26T14:31:22.592Z,3.00
2022-11-26T14:33:52.781Z,3.20
2022-11-26T14:36:26.240Z,2.95
2022-11-26T14:39:09.496Z,3.08
2022-11-26T14:41:52.153Z,2.47
2022-11-26T14:44:20.366Z,2.50
2022-11-26T14:46:50.910Z,7.65
2022-11-26T14:49:20.874Z,3.03
2022-11-26T14:51:53.466Z,2.97
2022-11-26T14:54:29.095Z,2.92
2022-11-26T14:56:59.017Z,2.67
2022-11-26T14:59:25.753Z,2.58
2022-11-26T15:01:52.519Z,2.58
2022-11-26T15:04:26.204Z,2.38
2022-11-26T15:09:24.451Z,2.90
2022-11-26T15:12:15.071Z,2.65
2022-11-26T15:14:50.311Z,2.17
2022-11-26T15:17:19.488Z,2.20
2022-11-26T15:19:47.692Z,2.80
2022-11-26T15:22:30.997Z,2.47
2022-11-26T15:24:57.998Z,2.42
2022-11-26T15:27:34.667Z,2.30
2022-11-26T15:30:01.402Z,2.25
2022-11-26T15:32:31.119Z,1.90
2022-11-26T15:35:01.500Z,2.40
2022-11-26T15:37:28.453Z,1.98
2022-11-26T15:40:10.115Z,2.08
2022-11-26T15:42:39.257Z,2.20
2022-11-26T15:45:22.707Z,3.20
2022-11-26T15:47:52.486Z,2.63
2022-11-26T15:50:32.229Z,2.40
2022-11-26T15:53:04.102Z,2.65
2022-11-26T15:55:35.204Z,2.28
2022-11-26T15:58:06.068Z,3.38
2022-11-26T16:00:41.253Z,3.35
2022-11-26T16:03:42.064Z,3.38
2022-11-26T16:06:34.314Z,2.55
2022-11-26T16:09:10.684Z,2.90
2022-11-26T16:11:44.217Z,3.45
2022-11-26T16:14:30.790Z,3.40
2022-11-26T16:17:06.592Z,4.60
2022-11-26T16:19:35.926Z,4.15
2022-11-26T16:22:05.893Z,4.00
2022-11-26T16:24:40.065Z,4.60
2022-11-26T16:27:23.459Z,4.22
2022-11-26T16:29:50.160Z,4.03
2022-11-26T16:32:18.229Z,7.18
2022-11-26T16:34:45.202Z,6.82
2022-11-26T16:37:28.462Z,5.40
2022-11-26T16:40:14.081Z,5.05
2022-11-26T16:42:40.843Z,5.80
2022-11-26T16:45:09.049Z,4.50
2022-11-26T16:47:39.471Z,6.88
2022-11-26T16:50:13.356Z,32.05
2022-11-26T16:52:41.632Z,11.75
2022-11-26T16:55:15.965Z,8.73
2022-11-26T16:57:46.691Z,5.50
2022-11-26T17:00:22.852Z,5.20
2022-11-26T17:02:50.291Z,5.28
2022-11-26T17:05:17.701Z,13.85
2022-11-26T17:07:47.444Z,7.47
2022-11-26T17:10:17.244Z,6.50
2022-11-26T17:12:44.602Z,7.32
2022-11-26T17:15:12.332Z,5.88
2022-11-26T17:17:39.841Z,5.28
2022-11-26T17:20:17.557Z,6.28
2022-11-26T17:22:45.384Z,6.40
2022-11-26T17:25:13.204Z,8.88
2022-11-26T17:27:40.509Z,7.70
2022-11-26T17:30:12.450Z,7.60
2022-11-26T17:32:39.177Z,15.15
2022-11-26T17:35:06.075Z,8.73
2022-11-26T17:37:34.101Z,5.72
2022-11-26T17:40:00.802Z,5.50
2022-11-26T17:42:29.985Z,6.80
2022-11-26T17:44:59.080Z,8.65
2022-11-26T17:47:27.376Z,8.10
2022-11-26T17:49:54.556Z,8.65
2022-11-26T17:52:22.894Z,5.38
2022-11-26T17:54:49.737Z,4.85
2022-11-26T17:57:17.265Z,5.68
2022-11-26T17:59:44.418Z,6.38
2022-11-26T18:02:11.734Z,11.07
2022-11-26T18:04:38.476Z,7.35
2022-11-26T18:07:18.138Z,7.72
2022-11-26T18:09:45.808Z,8.73
2022-11-26T18:12:24.835Z,7.82
2022-11-26T18:14:53.819Z,9.05
2022-11-26T18:17:20.789Z,9.23
2022-11-26T18:19:47.697Z,7.57
2022-11-26T18:22:20.794Z,7.63
2022-11-26T18:24:56.555Z,6.97
2022-11-26T18:27:26.438Z,7.70
2022-11-26T18:29:53.295Z,7.00
2022-11-26T18:32:20.221Z,8.50
2022-11-26T18:34:50.522Z,10.55
2022-11-26T18:37:18.199Z,27.20
2022-11-26T18:39:45.329Z,13.77
2022-11-26T18:42:36.134Z,11.52
2022-11-26T18:44:59.968Z,7.15
2022-11-26T18:47:26.696Z,7.35
2022-11-26T18:49:53.490Z,14.23
2022-11-26T18:52:20.222Z,13.40
2022-11-26T18:54:46.983Z,8.95
2022-11-26T18:57:13.790Z,9.27
2022-11-26T18:59:40.817Z,9.65
2022-11-26T19:02:10.365Z,7.55
2022-11-26T19:04:38.278Z,7.15
2022-11-26T19:07:05.000Z,12.32
2022-11-26T19:09:31.735Z,9.57
2022-11-26T19:11:58.442Z,11.10
2022-11-26T19:14:25.272Z,12.15
2022-11-26T19:16:52.376Z,12.75
2022-11-26T19:19:19.554Z,10.23
2022-11-26T19:21:46.333Z,12.05
2022-11-26T19:24:13.450Z,9.40
2022-11-26T19:26:43.489Z,11.88
2022-11-26T19:29:12.182Z,10.88
2022-11-26T19:31:39.925Z,9.07
2022-11-26T19:34:11.584Z,8.70
2022-11-26T19:36:41.072Z,9.07
2022-11-26T19:39:08.607Z,8.93
2022-11-26T19:41:35.568Z,10.27
2022-11-26T19:44:05.303Z,10.25
2022-11-26T19:46:32.762Z,10.25
2022-11-26T19:48:59.563Z,8.10
2022-11-26T19:51:27.723Z,7.80
2022-11-26T19:53:55.560Z,8.68
2022-11-26T19:56:27.987Z,13.13
2022-11-26T19:58:57.755Z,7.90
2022-11-26T20:01:27.276Z,11.38
2022-11-26T20:03:54.089Z,10.85
2022-11-26T20:06:26.800Z,10.43
2022-11-26T20:08:54.797Z,9.00
2022-11-26T20:11:22.320Z,8.57
2022-11-26T20:13:49.940Z,9.73
2022-11-26T20:16:28.022Z,11.77
2022-11-26T20:18:55.345Z,9.55
2022-11-26T20:21:25.893Z,8.25
2022-11-26T20:23:54.416Z,7.10
2022-11-26T20:26:25.265Z,7.00
2022-11-26T20:28:53.062Z,7.38
2022-11-26T20:31:23.595Z,9.18
2022-11-26T20:33:53.133Z,6.82
2022-11-26T20:36:22.565Z,7.25
2022-11-26T20:38:53.912Z,5.53
2022-11-26T20:41:21.571Z,6.28
2022-11-26T20:43:51.345Z,6.78
2022-11-26T20:46:22.518Z,6.75
2022-11-26T20:48:49.904Z,7.50
2022-11-26T20:51:18.806Z,8.10
2022-11-26T20:53:51.758Z,7.78
2022-11-26T20:56:20.932Z,8.50
2022-11-26T20:58:48.540Z,6.60
2022-11-26T21:01:27.438Z,7.18
2022-11-26T21:03:55.140Z,6.85
2022-11-26T21:06:29.639Z,7.43
2022-11-26T21:09:01.958Z,7.35
2022-11-26T21:11:29.976Z,8.98
2022-11-26T21:13:58.440Z,7.97
2022-11-26T21:16:25.784Z,6.05
2022-11-26T21:18:54.290Z,6.35
2022-11-26T21:21:21.631Z,5.70
2022-11-26T21:23:48.386Z,9.13
2022-11-26T21:26:20.678Z,11.32
2022-11-26T21:28:51.859Z,10.00
2022-11-26T21:31:19.699Z,11.55
2022-11-26T21:33:47.847Z,14.07
2022-11-26T21:36:16.124Z,11.00
2022-11-26T21:38:43.333Z,10.98
2022-11-26T21:41:13.758Z,10.52
2022-11-26T21:43:41.266Z,9.73
2022-11-26T21:46:10.969Z,9.77
2022-11-26T21:48:37.925Z,8.77
2022-11-26T21:51:15.112Z,8.80
2022-11-26T21:53:42.114Z,9.10
2022-11-26T21:56:16.039Z,8.75
2022-11-26T21:58:43.123Z,9.15
2022-11-26T22:01:19.385Z,9.50
2022-11-26T22:03:48.727Z,10.68
2022-11-26T22:06:16.246Z,9.45
2022-11-26T22:08:43.521Z,10.00
2022-11-26T22:11:29.935Z,9.20
2022-11-26T22:13:57.030Z,9.95
2022-11-26T22:16:26.236Z,8.60
2022-11-26T22:18:54.208Z,10.43
2022-11-26T22:21:22.302Z,7.90
2022-11-26T22:23:50.280Z,7.57
2022-11-26T22:26:18.376Z,6.75
2022-11-26T22:28:45.383Z,6.15
2022-11-26T22:31:18.790Z,7.03
2022-11-26T22:33:46.183Z,6.43
2022-11-26T22:36:13.547Z,6.30
2022-11-26T22:38:41.656Z,6.57
2022-11-26T22:41:11.693Z,7.80
2022-11-26T22:43:39.334Z,4.72
2022-11-26T22:46:17.763Z,5.60
2022-11-26T22:48:52.366Z,4.60
2022-11-26T22:51:20.219Z,4.72
2022-11-26T22:53:55.522Z,4.60
2022-11-26T22:56:22.882Z,4.03
2022-11-26T22:58:49.730Z,4.45
2022-11-26T23:01:38.794Z,5.10
2022-11-26T23:04:08.011Z,5.03
2022-11-26T23:06:35.654Z,3.53
2022-11-26T23:09:04.773Z,4.40
2022-11-26T23:11:34.095Z,4.65
2022-11-26T23:14:06.991Z,4.60
2022-11-26T23:16:34.566Z,5.03
2022-11-26T23:19:01.839Z,5.68
2022-11-26T23:21:31.594Z,6.03
2022-11-26T23:23:58.673Z,7.78
2022-11-26T23:26:28.693Z,6.50
2022-11-26T23:29:00.528Z,7.53
2022-11-26T23:31:34.055Z,4.32
2022-11-26T23:36:28.924Z,4.40
2022-11-26T23:38:56.488Z,5.18
2022-11-26T23:41:23.383Z,4.65
2022-11-26T23:43:50.614Z,7.95
2022-11-26T23:46:18.931Z,6.10
2022-11-26T23:48:46.432Z,6.45
2022-11-26T23:51:16.273Z,6.55
2022-11-26T23:53:44.345Z,10.48
2022-11-26T23:56:14.901Z,5.68
2022-11-26T23:58:42.154Z,10.85
